sensor_id;sensor_type;location;lat;lon;timestamp;pressure;altitude;pressure_sealevel;temperature;humidity
8294;BME280;4185;41.506;24.938;2023-03-11T00:00:40;91985.56;;;11.24;98.28
8294;BME280;4185;41.506;24.938;2023-03-11T00:03:10;91982.72;;;11.29;97.60
8294;BME280;4185;41.506;24.938;2023-03-11T00:05:39;91978.53;;;11.28;97.96
8294;BME280;4185;41.506;24.938;2023-03-11T00:08:07;91985.56;;;11.24;98.69
8294;BME280;4185;41.506;24.938;2023-03-11T00:10:36;92019.00;;;11.19;98.67
8294;BME280;4185;41.506;24.938;2023-03-11T00:13:04;91996.75;;;11.20;95.83
8294;BME280;4185;41.506;24.938;2023-03-11T00:15:34;92016.16;;;11.37;92.99
8294;BME280;4185;41.506;24.938;2023-03-11T00:18:01;92003.38;;;11.45;91.01
8294;BME280;4185;41.506;24.938;2023-03-11T00:20:32;91997.81;;;11.51;86.67
8294;BME280;4185;41.506;24.938;2023-03-11T00:23:00;91995.84;;;11.51;85.04
8294;BME280;4185;41.506;24.938;2023-03-11T00:25:29;91982.03;;;11.49;84.05
8294;BME280;4185;41.506;24.938;2023-03-11T00:27:56;91972.63;;;11.50;83.58
8294;BME280;4185;41.506;24.938;2023-03-11T00:30:24;91970.44;;;11.49;84.11
8294;BME280;4185;41.506;24.938;2023-03-11T00:32:53;91957.03;;;11.51;83.62
8294;BME280;4185;41.506;24.938;2023-03-11T00:35:22;91942.38;;;11.54;84.09
8294;BME280;4185;41.506;24.938;2023-03-11T00:37:54;91938.41;;;11.55;86.79
8294;BME280;4185;41.506;24.938;2023-03-11T00:40:23;91933.50;;;11.53;85.13
8294;BME280;4185;41.506;24.938;2023-03-11T00:42:50;91923.69;;;11.50;85.22
8294;BME280;4185;41.506;24.938;2023-03-11T00:45:17;91908.44;;;11.47;85.83
8294;BME280;4185;41.506;24.938;2023-03-11T00:47:44;91912.81;;;11.50;86.13
8294;BME280;4185;41.506;24.938;2023-03-11T00:50:14;91912.41;;;11.46;87.08
8294;BME280;4185;41.506;24.938;2023-03-11T00:52:42;91903.31;;;11.44;88.51
8294;BME280;4185;41.506;24.938;2023-03-11T00:55:12;91910.34;;;11.39;89.12
8294;BME280;4185;41.506;24.938;2023-03-11T00:57:40;91911.53;;;11.31;89.87
8294;BME280;4185;41.506;24.938;2023-03-11T01:00:08;91902.44;;;11.28;90.63
8294;BME280;4185;41.506;24.938;2023-03-11T01:02:36;91885.00;;;11.24;90.30
8294;BME280;4185;41.506;24.938;2023-03-11T01:05:04;91893.69;;;11.22;91.51
8294;BME280;4185;41.506;24.938;2023-03-11T01:07:31;91886.06;;;11.21;91.00
8294;BME280;4185;41.506;24.938;2023-03-11T01:09:58;91877.91;;;11.21;91.70
8294;BME280;4185;41.506;24.938;2023-03-11T01:12:27;91892.22;;;11.21;91.90
8294;BME280;4185;41.506;24.938;2023-03-11T01:14:54;91882.53;;;11.13;92.08
8294;BME280;4185;41.506;24.938;2023-03-11T01:17:20;91889.22;;;11.12;93.26
8294;BME280;4185;41.506;24.938;2023-03-11T01:19:47;91881.19;;;11.06;92.87
8294;BME280;4185;41.506;24.938;2023-03-11T01:22:15;91872.63;;;11.02;92.88
8294;BME280;4185;41.506;24.938;2023-03-11T01:24:41;91868.66;;;11.03;92.47
8294;BME280;4185;41.506;24.938;2023-03-11T01:27:08;91877.13;;;10.99;91.88
8294;BME280;4185;41.506;24.938;2023-03-11T01:29:36;91845.31;;;10.87;94.00
8294;BME280;4185;41.506;24.938;2023-03-11T01:32:04;91850.16;;;10.68;94.38
8294;BME280;4185;41.506;24.938;2023-03-11T01:34:31;91847.75;;;10.64;94.80
8294;BME280;4185;41.506;24.938;2023-03-11T01:37:00;91835.84;;;10.67;93.96
8294;BME280;4185;41.506;24.938;2023-03-11T01:39:27;91840.97;;;10.71;93.28
8294;BME280;4185;41.506;24.938;2023-03-11T01:41:54;91840.25;;;10.70;93.37
8294;BME280;4185;41.506;24.938;2023-03-11T01:44:21;91834.41;;;10.66;93.00
8294;BME280;4185;41.506;24.938;2023-03-11T01:49:53;91835.25;;;10.61;93.51
8294;BME280;4185;41.506;24.938;2023-03-11T01:52:20;91835.34;;;10.56;93.42
8294;BME280;4185;41.506;24.938;2023-03-11T01:54:47;91841.53;;;10.56;93.68
8294;BME280;4185;41.506;24.938;2023-03-11T01:57:14;91831.81;;;10.48;93.88
8294;BME280;4185;41.506;24.938;2023-03-11T01:59:44;91815.75;;;10.50;93.65
8294;BME280;4185;41.506;24.938;2023-03-11T02:02:16;91816.38;;;10.43;93.28
8294;BME280;4185;41.506;24.938;2023-03-11T02:04:44;91796.03;;;10.36;94.12
8294;BME280;4185;41.506;24.938;2023-03-11T02:07:13;91809.50;;;10.29;94.14
8294;BME280;4185;41.506;24.938;2023-03-11T02:09:40;91804.19;;;10.23;93.43
8294;BME280;4185;41.506;24.938;2023-03-11T02:12:09;91799.50;;;10.24;93.88
8294;BME280;4185;41.506;24.938;2023-03-11T02:14:41;91806.91;;;10.23;93.09
8294;BME280;4185;41.506;24.938;2023-03-11T02:17:08;91810.78;;;10.15;92.84
8294;BME280;4185;41.506;24.938;2023-03-11T02:19:45;91803.56;;;10.17;93.55
8294;BME280;4185;41.506;24.938;2023-03-11T02:22:16;91799.09;;;10.20;93.72
8294;BME280;4185;41.506;24.938;2023-03-11T02:24:47;91799.81;;;10.20;93.12
8294;BME280;4185;41.506;24.938;2023-03-11T02:27:19;91816.72;;;10.13;93.51
8294;BME280;4185;41.506;24.938;2023-03-11T02:29:48;91792.63;;;10.10;93.70
8294;BME280;4185;41.506;24.938;2023-03-11T02:32:17;91784.88;;;10.01;93.41
8294;BME280;4185;41.506;24.938;2023-03-11T02:34:44;91782.19;;;10.01;93.33
8294;BME280;4185;41.506;24.938;2023-03-11T02:37:13;91775.50;;;10.02;93.15
8294;BME280;4185;41.506;24.938;2023-03-11T02:39:41;91769.25;;;9.94;93.54
8294;BME280;4185;41.506;24.938;2023-03-11T02:42:12;91768.81;;;9.89;93.26
8294;BME280;4185;41.506;24.938;2023-03-11T02:44:43;91772.50;;;9.79;93.73
8294;BME280;4185;41.506;24.938;2023-03-11T02:47:11;91769.03;;;9.78;93.62
8294;BME280;4185;41.506;24.938;2023-03-11T02:49:38;91784.34;;;9.76;94.25
8294;BME280;4185;41.506;24.938;2023-03-11T02:52:05;91781.03;;;9.70;94.74
8294;BME280;4185;41.506;24.938;2023-03-11T02:54:32;91782.38;;;9.76;94.54
8294;BME280;4185;41.506;24.938;2023-03-11T02:56:59;91784.47;;;9.83;94.71
8294;BME280;4185;41.506;24.938;2023-03-11T02:59:25;91775.81;;;9.85;94.48
8294;BME280;4185;41.506;24.938;2023-03-11T03:01:53;91785.75;;;9.82;94.18
8294;BME280;4185;41.506;24.938;2023-03-11T03:04:20;91778.94;;;9.76;94.84
8294;BME280;4185;41.506;24.938;2023-03-11T03:06:47;91789.91;;;9.70;94.86
8294;BME280;4185;41.506;24.938;2023-03-11T03:09:14;91792.09;;;9.72;95.21
8294;BME280;4185;41.506;24.938;2023-03-11T03:11:40;91798.97;;;9.73;96.07
8294;BME280;4185;41.506;24.938;2023-03-11T03:14:07;91801.38;;;9.76;96.30
8294;BME280;4185;41.506;24.938;2023-03-11T03:16:34;91810.44;;;9.79;96.09
8294;BME280;4185;41.506;24.938;2023-03-11T03:19:02;91804.69;;;9.69;96.03
8294;BME280;4185;41.506;24.938;2023-03-11T03:21:29;91799.41;;;9.64;97.16
8294;BME280;4185;41.506;24.938;2023-03-11T03:23:56;91794.59;;;9.70;97.57
8294;BME280;4185;41.506;24.938;2023-03-11T03:26:23;91790.53;;;9.63;97.31
8294;BME280;4185;41.506;24.938;2023-03-11T03:28:50;91808.44;;;9.66;97.58
8294;BME280;4185;41.506;24.938;2023-03-11T03:31:17;91808.88;;;9.70;99.38
8294;BME280;4185;41.506;24.938;2023-03-11T03:33:43;91804.59;;;9.75;98.76
8294;BME280;4185;41.506;24.938;2023-03-11T03:36:13;91816.09;;;9.94;98.96
8294;BME280;4185;41.506;24.938;2023-03-11T03:38:40;91834.31;;;10.07;98.82
8294;BME280;4185;41.506;24.938;2023-03-11T03:41:07;91841.88;;;10.14;98.69
8294;BME280;4185;41.506;24.938;2023-03-11T03:43:34;91847.94;;;10.20;94.89
8294;BME280;4185;41.506;24.938;2023-03-11T03:46:03;91840.41;;;10.26;94.97
8294;BME280;4185;41.506;24.938;2023-03-11T03:48:31;91838.97;;;10.25;94.08
8294;BME280;4185;41.506;24.938;2023-03-11T03:51:02;91856.69;;;10.26;92.41
8294;BME280;4185;41.506;24.938;2023-03-11T03:53:30;91862.13;;;10.26;92.60
8294;BME280;4185;41.506;24.938;2023-03-11T03:56:01;91856.69;;;10.26;94.06
8294;BME280;4185;41.506;24.938;2023-03-11T03:58:28;91861.38;;;10.25;95.25
8294;BME280;4185;41.506;24.938;2023-03-11T04:00:55;91855.41;;;10.27;94.98
8294;BME280;4185;41.506;24.938;2023-03-11T04:03:22;91851.25;;;10.26;93.72
8294;BME280;4185;41.506;24.938;2023-03-11T04:05:49;91834.56;;;10.22;92.77
8294;BME280;4185;41.506;24.938;2023-03-11T04:08:16;91800.22;;;10.24;90.51
8294;BME280;4185;41.506;24.938;2023-03-11T04:10:44;91790.22;;;10.19;92.60
8294;BME280;4185;41.506;24.938;2023-03-11T04:13:11;91841.47;;;10.23;90.04
8294;BME280;4185;41.506;24.938;2023-03-11T04:15:38;91828.31;;;10.14;93.52
8294;BME280;4185;41.506;24.938;2023-03-11T04:18:04;91831.63;;;10.07;91.99
8294;BME280;4185;41.506;24.938;2023-03-11T04:20:31;91823.47;;;10.07;92.81
8294;BME280;4185;41.506;24.938;2023-03-11T04:22:58;91806.19;;;10.10;92.89
8294;BME280;4185;41.506;24.938;2023-03-11T04:25:25;91794.09;;;10.11;91.93
8294;BME280;4185;41.506;24.938;2023-03-11T04:27:53;91788.13;;;10.12;92.37
8294;BME280;4185;41.506;24.938;2023-03-11T04:30:20;91787.41;;;10.12;92.55
8294;BME280;4185;41.506;24.938;2023-03-11T04:32:46;91781.97;;;10.12;92.61
8294;BME280;4185;41.506;24.938;2023-03-11T04:35:13;91777.28;;;10.12;91.71
8294;BME280;4185;41.506;24.938;2023-03-11T04:37:40;91779.25;;;10.12;91.91
8294;BME280;4185;41.506;24.938;2023-03-11T04:40:08;91774.25;;;10.03;92.80
8294;BME280;4185;41.506;24.938;2023-03-11T04:42:35;91781.97;;;9.99;92.70
8294;BME280;4185;41.506;24.938;2023-03-11T04:45:06;91769.84;;;10.00;93.91
8294;BME280;4185;41.506;24.938;2023-03-11T04:47:33;91772.56;;;10.00;93.68
8294;BME280;4185;41.506;24.938;2023-03-11T04:50:00;91764.03;;;9.96;93.56
8294;BME280;4185;41.506;24.938;2023-03-11T04:52:26;91757.38;;;9.83;94.64
8294;BME280;4185;41.506;24.938;2023-03-11T04:54:53;91757.16;;;9.81;94.80
8294;BME280;4185;41.506;24.938;2023-03-11T04:57:20;91761.13;;;9.80;95.89
8294;BME280;4185;41.506;24.938;2023-03-11T04:59:47;91765.81;;;9.80;95.92
8294;BME280;4185;41.506;24.938;2023-03-11T05:02:15;91760.91;;;9.78;95.67
8294;BME280;4185;41.506;24.938;2023-03-11T05:04:42;91765.50;;;9.83;95.42
8294;BME280;4185;41.506;24.938;2023-03-11T05:07:09;91769.66;;;9.84;95.96
8294;BME280;4185;41.506;24.938;2023-03-11T05:09:36;91763.22;;;9.88;95.28
8294;BME280;4185;41.506;24.938;2023-03-11T05:12:04;91772.06;;;9.88;94.87
8294;BME280;4185;41.506;24.938;2023-03-11T05:14:30;91768.94;;;9.84;95.87
8294;BME280;4185;41.506;24.938;2023-03-11T05:16:57;91776.88;;;9.82;96.66
8294;BME280;4185;41.506;24.938;2023-03-11T05:19:25;91767.47;;;9.83;96.88
8294;BME280;4185;41.506;24.938;2023-03-11T05:21:59;91771.31;;;9.74;97.66
8294;BME280;4185;41.506;24.938;2023-03-11T05:24:26;91775.31;;;9.73;98.14
8294;BME280;4185;41.506;24.938;2023-03-11T05:26:53;91779.69;;;9.76;98.04
8294;BME280;4185;41.506;24.938;2023-03-11T05:29:21;91778.41;;;9.77;97.76
8294;BME280;4185;41.506;24.938;2023-03-11T05:31:48;91775.69;;;9.77;97.66
8294;BME280;4185;41.506;24.938;2023-03-11T05:34:15;91764.84;;;9.77;97.90
8294;BME280;4185;41.506;24.938;2023-03-11T05:36:44;91773.72;;;9.78;97.26
8294;BME280;4185;41.506;24.938;2023-03-11T05:39:10;91771.84;;;9.73;98.56
8294;BME280;4185;41.506;24.938;2023-03-11T05:41:37;91770.41;;;9.72;98.91
8294;BME280;4185;41.506;24.938;2023-03-11T05:44:04;91770.19;;;9.70;99.25
8294;BME280;4185;41.506;24.938;2023-03-11T05:46:32;91763.19;;;9.74;98.59
8294;BME280;4185;41.506;24.938;2023-03-11T05:48:58;91764.84;;;9.77;99.30
8294;BME280;4185;41.506;24.938;2023-03-11T05:51:25;91767.91;;;9.87;98.39
8294;BME280;4185;41.506;24.938;2023-03-11T05:53:53;91755.78;;;9.88;97.57
8294;BME280;4185;41.506;24.938;2023-03-11T05:56:21;91754.13;;;9.85;97.24
8294;BME280;4185;41.506;24.938;2023-03-11T05:58:48;91749.44;;;9.85;98.07
8294;BME280;4185;41.506;24.938;2023-03-11T06:01:17;91750.78;;;9.92;97.92
8294;BME280;4185;41.506;24.938;2023-03-11T06:03:44;91748.81;;;9.93;97.84
8294;BME280;4185;41.506;24.938;2023-03-11T06:06:12;91738.28;;;9.89;98.62
8294;BME280;4185;41.506;24.938;2023-03-11T06:08:39;91742.22;;;9.88;97.54
8294;BME280;4185;41.506;24.938;2023-03-11T06:11:11;91734.31;;;9.90;97.61
8294;BME280;4185;41.506;24.938;2023-03-11T06:13:38;91732.53;;;9.93;98.39
8294;BME280;4185;41.506;24.938;2023-03-11T06:16:06;91728.69;;;10.01;98.54
8294;BME280;4185;41.506;24.938;2023-03-11T06:18:33;91727.63;;;10.04;97.37
8294;BME280;4185;41.506;24.938;2023-03-11T06:21:01;91722.31;;;10.12;98.06
8294;BME280;4185;41.506;24.938;2023-03-11T06:23:28;91720.75;;;10.16;97.93
8294;BME280;4185;41.506;24.938;2023-03-11T06:25:56;91715.44;;;10.11;98.45
8294;BME280;4185;41.506;24.938;2023-03-11T06:28:25;91710.22;;;10.13;99.16
8294;BME280;4185;41.506;24.938;2023-03-11T06:30:52;91726.69;;;10.15;98.63
8294;BME280;4185;41.506;24.938;2023-03-11T06:33:21;91718.94;;;10.19;98.23
8294;BME280;4185;41.506;24.938;2023-03-11T06:35:56;91711.31;;;10.30;97.33
8294;BME280;4185;41.506;24.938;2023-03-11T06:38:23;91709.22;;;10.36;97.08
8294;BME280;4185;41.506;24.938;2023-03-11T06:40:50;91706.03;;;10.45;96.64
8294;BME280;4185;41.506;24.938;2023-03-11T06:43:17;91701.59;;;10.55;95.89
8294;BME280;4185;41.506;24.938;2023-03-11T06:45:45;91704.19;;;10.61;95.69
8294;BME280;4185;41.506;24.938;2023-03-11T06:48:12;91699.31;;;10.59;95.10
8294;BME280;4185;41.506;24.938;2023-03-11T06:50:39;91689.19;;;10.60;95.97
8294;BME280;4185;41.506;24.938;2023-03-11T06:53:06;91688.97;;;10.58;94.39
8294;BME280;4185;41.506;24.938;2023-03-11T06:55:32;91688.13;;;10.63;92.69
8294;BME280;4185;41.506;24.938;2023-03-11T06:58:00;91682.63;;;10.76;92.22
8294;BME280;4185;41.506;24.938;2023-03-11T07:00:27;91692.69;;;10.88;92.26
8294;BME280;4185;41.506;24.938;2023-03-11T07:02:56;91691.03;;;10.85;92.04
8294;BME280;4185;41.506;24.938;2023-03-11T07:05:23;91685.47;;;10.91;92.78
8294;BME280;4185;41.506;24.938;2023-03-11T07:07:52;91693.16;;;11.00;92.21
8294;BME280;4185;41.506;24.938;2023-03-11T07:10:20;91689.56;;;11.05;90.75
8294;BME280;4185;41.506;24.938;2023-03-11T07:12:46;91696.19;;;11.17;89.11
8294;BME280;4185;41.506;24.938;2023-03-11T07:15:13;91690.63;;;11.23;87.64
8294;BME280;4185;41.506;24.938;2023-03-11T07:17:40;91684.69;;;11.32;86.58
8294;BME280;4185;41.506;24.938;2023-03-11T07:20:10;91687.25;;;11.37;87.57
8294;BME280;4185;41.506;24.938;2023-03-11T07:22:37;91682.22;;;11.41;84.14
8294;BME280;4185;41.506;24.938;2023-03-11T07:25:04;91685.13;;;11.43;84.00
8294;BME280;4185;41.506;24.938;2023-03-11T07:27:31;91690.75;;;11.45;84.84
8294;BME280;4185;41.506;24.938;2023-03-11T07:29:59;91695.31;;;11.50;84.55
8294;BME280;4185;41.506;24.938;2023-03-11T07:32:26;91697.16;;;11.55;83.92
8294;BME280;4185;41.506;24.938;2023-03-11T07:34:53;91701.91;;;11.62;82.68
8294;BME280;4185;41.506;24.938;2023-03-11T07:37:21;91718.66;;;11.66;82.41
8294;BME280;4185;41.506;24.938;2023-03-11T07:39:48;91717.22;;;11.73;81.23
8294;BME280;4185;41.506;24.938;2023-03-11T07:42:15;91713.28;;;11.81;81.74
8294;BME280;4185;41.506;24.938;2023-03-11T07:44:42;91723.69;;;11.90;81.69
8294;BME280;4185;41.506;24.938;2023-03-11T07:47:09;91728.63;;;11.99;80.43
8294;BME280;4185;41.506;24.938;2023-03-11T07:49:35;91725.94;;;12.07;79.26
8294;BME280;4185;41.506;24.938;2023-03-11T07:52:02;91726.16;;;12.16;79.09
8294;BME280;4185;41.506;24.938;2023-03-11T07:54:31;91726.56;;;12.28;77.27
8294;BME280;4185;41.506;24.938;2023-03-11T07:56:57;91722.28;;;12.48;77.14
8294;BME280;4185;41.506;24.938;2023-03-11T07:59:24;91719.41;;;12.61;75.55
8294;BME280;4185;41.506;24.938;2023-03-11T08:01:51;91716.53;;;12.66;75.85
8294;BME280;4185;41.506;24.938;2023-03-11T08:04:17;91721.63;;;12.70;74.14
8294;BME280;4185;41.506;24.938;2023-03-11T08:06:46;91720.19;;;12.76;73.35
8294;BME280;4185;41.506;24.938;2023-03-11T08:09:14;91717.31;;;12.82;74.29
8294;BME280;4185;41.506;24.938;2023-03-11T08:11:42;91709.84;;;12.90;71.81
8294;BME280;4185;41.506;24.938;2023-03-11T08:14:09;91709.31;;;12.99;72.26
8294;BME280;4185;41.506;24.938;2023-03-11T08:16:38;91694.09;;;13.11;71.97
8294;BME280;4185;41.506;24.938;2023-03-11T08:19:05;91693.00;;;13.14;71.27
8294;BME280;4185;41.506;24.938;2023-03-11T08:21:31;91685.38;;;13.20;71.00
8294;BME280;4185;41.506;24.938;2023-03-11T08:24:00;91684.66;;;13.27;70.30
8294;BME280;4185;41.506;24.938;2023-03-11T08:26:27;91675.38;;;13.30;67.32
8294;BME280;4185;41.506;24.938;2023-03-11T08:28:56;91678.47;;;13.34;66.96
8294;BME280;4185;41.506;24.938;2023-03-11T08:31:25;91685.72;;;13.39;67.53
8294;BME280;4185;41.506;24.938;2023-03-11T08:33:55;91684.09;;;13.36;65.29
8294;BME280;4185;41.506;24.938;2023-03-11T08:36:22;91681.72;;;13.40;67.14
8294;BME280;4185;41.506;24.938;2023-03-11T08:38:49;91676.06;;;13.53;67.54
8294;BME280;4185;41.506;24.938;2023-03-11T08:41:15;91673.16;;;13.66;67.29
8294;BME280;4185;41.506;24.938;2023-03-11T08:43:42;91676.22;;;13.70;65.71
8294;BME280;4185;41.506;24.938;2023-03-11T08:46:14;91675.13;;;13.73;63.29
8294;BME280;4185;41.506;24.938;2023-03-11T08:48:41;91661.31;;;13.71;61.64
8294;BME280;4185;41.506;24.938;2023-03-11T08:51:09;91668.22;;;13.72;63.30
8294;BME280;4185;41.506;24.938;2023-03-11T08:53:36;91658.97;;;13.68;61.54
8294;BME280;4185;41.506;24.938;2023-03-11T08:56:03;91664.22;;;13.73;61.58
8294;BME280;4185;41.506;24.938;2023-03-11T08:58:30;91662.38;;;13.83;62.27
8294;BME280;4185;41.506;24.938;2023-03-11T09:00:57;91654.34;;;13.85;59.70
8294;BME280;4185;41.506;24.938;2023-03-11T09:03:25;91656.00;;;13.88;59.09
8294;BME280;4185;41.506;24.938;2023-03-11T09:05:57;91648.88;;;14.00;60.90
8294;BME280;4185;41.506;24.938;2023-03-11T09:08:24;91653.53;;;14.07;60.36
8294;BME280;4185;41.506;24.938;2023-03-11T09:10:51;91650.41;;;14.26;60.07
8294;BME280;4185;41.506;24.938;2023-03-11T09:13:18;91645.75;;;14.51;59.03
8294;BME280;4185;41.506;24.938;2023-03-11T09:15:45;91640.84;;;14.74;59.59
8294;BME280;4185;41.506;24.938;2023-03-11T09:18:12;91639.34;;;14.81;58.25
8294;BME280;4185;41.506;24.938;2023-03-11T09:20:41;91642.25;;;14.83;58.94
8294;BME280;4185;41.506;24.938;2023-03-11T09:23:10;91635.44;;;14.66;57.13
8294;BME280;4185;41.506;24.938;2023-03-11T09:25:37;91638.88;;;14.42;56.58
8294;BME280;4185;41.506;24.938;2023-03-11T09:28:04;91635.97;;;14.40;57.39
8294;BME280;4185;41.506;24.938;2023-03-11T09:30:31;91631.75;;;14.39;56.86
8294;BME280;4185;41.506;24.938;2023-03-11T09:32:58;91627.72;;;14.48;55.96
8294;BME280;4185;41.506;24.938;2023-03-11T09:35:25;91617.81;;;14.60;55.92
8294;BME280;4185;41.506;24.938;2023-03-11T09:37:53;91627.75;;;14.73;56.81
8294;BME280;4185;41.506;24.938;2023-03-11T09:40:22;91624.81;;;14.78;54.11
8294;BME280;4185;41.506;24.938;2023-03-11T09:42:58;91616.50;;;14.93;55.66
8294;BME280;4185;41.506;24.938;2023-03-11T09:45:31;91627.19;;;14.99;55.55
8294;BME280;4185;41.506;24.938;2023-03-11T09:48:11;91630.09;;;15.01;54.75
8294;BME280;4185;41.506;24.938;2023-03-11T09:50:44;91622.84;;;14.96;54.97
8294;BME280;4185;41.506;24.938;2023-03-11T09:53:24;91623.44;;;14.87;55.10
8294;BME280;4185;41.506;24.938;2023-03-11T09:55:53;91633.53;;;14.77;54.13
8294;BME280;4185;41.506;24.938;2023-03-11T09:58:34;91635.78;;;14.71;53.52
8294;BME280;4185;41.506;24.938;2023-03-11T10:01:02;91643.81;;;14.68;53.12
8294;BME280;4185;41.506;24.938;2023-03-11T10:03:34;91642.75;;;14.64;54.03
8294;BME280;4185;41.506;24.938;2023-03-11T10:06:11;91633.88;;;14.81;53.50
8294;BME280;4185;41.506;24.938;2023-03-11T10:08:44;91631.94;;;14.98;52.89
8294;BME280;4185;41.506;24.938;2023-03-11T10:11:24;91624.44;;;15.23;53.08
8294;BME280;4185;41.506;24.938;2023-03-11T10:14:00;91627.94;;;15.41;53.06
8294;BME280;4185;41.506;24.938;2023-03-11T10:16:34;91626.47;;;15.47;53.40
8294;BME280;4185;41.506;24.938;2023-03-11T10:19:10;91615.56;;;15.40;50.81
8294;BME280;4185;41.506;24.938;2023-03-11T10:21:48;91624.88;;;15.37;51.23
8294;BME280;4185;41.506;24.938;2023-03-11T10:24:35;91628.28;;;15.45;47.74
8294;BME280;4185;41.506;24.938;2023-03-11T10:27:13;91620.31;;;15.56;48.90
8294;BME280;4185;41.506;24.938;2023-03-11T10:29:48;91620.56;;;15.68;47.99
8294;BME280;4185;41.506;24.938;2023-03-11T10:32:20;91609.22;;;15.71;47.41
8294;BME280;4185;41.506;24.938;2023-03-11T10:34:53;91606.09;;;15.75;48.65
8294;BME280;4185;41.506;24.938;2023-03-11T10:37:24;91604.81;;;15.93;47.45
8294;BME280;4185;41.506;24.938;2023-03-11T10:39:53;91607.38;;;15.91;47.93
8294;BME280;4185;41.506;24.938;2023-03-11T10:42:22;91602.22;;;15.95;47.32
8294;BME280;4185;41.506;24.938;2023-03-11T10:44:50;91609.31;;;15.81;47.13
8294;BME280;4185;41.506;24.938;2023-03-11T10:47:19;91607.16;;;15.79;48.51
8294;BME280;4185;41.506;24.938;2023-03-11T10:49:47;91603.91;;;16.08;48.78
8294;BME280;4185;41.506;24.938;2023-03-11T10:52:14;91597.63;;;16.41;47.79
8294;BME280;4185;41.506;24.938;2023-03-11T10:54:42;91587.72;;;16.46;47.40
8294;BME280;4185;41.506;24.938;2023-03-11T10:57:23;91589.47;;;16.77;45.53
8294;BME280;4185;41.506;24.938;2023-03-11T10:59:52;91595.38;;;16.74;44.02
8294;BME280;4185;41.506;24.938;2023-03-11T11:02:25;91591.00;;;16.97;43.21
8294;BME280;4185;41.506;24.938;2023-03-11T11:05:05;91579.94;;;17.15;43.37
8294;BME280;4185;41.506;24.938;2023-03-11T11:07:34;91579.59;;;16.65;43.60
8294;BME280;4185;41.506;24.938;2023-03-11T11:10:17;91585.88;;;16.31;43.89
8294;BME280;4185;41.506;24.938;2023-03-11T11:12:53;91589.56;;;16.17;45.85
8294;BME280;4185;41.506;24.938;2023-03-11T11:15:21;91579.81;;;16.06;45.98
8294;BME280;4185;41.506;24.938;2023-03-11T11:17:48;91579.41;;;16.36;46.80
8294;BME280;4185;41.506;24.938;2023-03-11T11:20:16;91596.00;;;16.55;46.09
8294;BME280;4185;41.506;24.938;2023-03-11T11:22:48;91583.31;;;16.33;47.80
8294;BME280;4185;41.506;24.938;2023-03-11T11:25:24;91597.66;;;16.24;47.09
8294;BME280;4185;41.506;24.938;2023-03-11T11:27:58;91604.13;;;16.19;49.01
8294;BME280;4185;41.506;24.938;2023-03-11T11:30:26;91618.94;;;16.16;49.45
8294;BME280;4185;41.506;24.938;2023-03-11T11:32:53;91611.16;;;16.39;48.24
8294;BME280;4185;41.506;24.938;2023-03-11T11:35:24;91609.31;;;16.42;48.01
8294;BME280;4185;41.506;24.938;2023-03-11T11:37:52;91600.19;;;16.39;48.50
8294;BME280;4185;41.506;24.938;2023-03-11T11:40:26;91607.44;;;16.44;49.11
8294;BME280;4185;41.506;24.938;2023-03-11T11:42:58;91609.09;;;16.30;47.60
8294;BME280;4185;41.506;24.938;2023-03-11T11:45:35;91598.97;;;16.23;47.58
8294;BME280;4185;41.506;24.938;2023-03-11T11:48:10;91596.06;;;16.21;46.29
8294;BME280;4185;41.506;24.938;2023-03-11T11:50:43;91595.84;;;16.10;47.02
8294;BME280;4185;41.506;24.938;2023-03-11T11:53:19;91580.97;;;16.03;48.40
8294;BME280;4185;41.506;24.938;2023-03-11T11:55:51;91579.66;;;16.04;47.39
8294;BME280;4185;41.506;24.938;2023-03-11T11:58:20;91587.78;;;16.12;48.94
8294;BME280;4185;41.506;24.938;2023-03-11T12:01:04;91583.28;;;16.07;49.38
8294;BME280;4185;41.506;24.938;2023-03-11T12:03:48;91594.56;;;15.94;49.30
8294;BME280;4185;41.506;24.938;2023-03-11T12:06:22;91592.91;;;15.81;49.67
8294;BME280;4185;41.506;24.938;2023-03-11T12:09:02;91585.31;;;15.89;49.85
8294;BME280;4185;41.506;24.938;2023-03-11T12:11:37;91590.59;;;16.21;49.90
8294;BME280;4185;41.506;24.938;2023-03-11T12:14:13;91596.88;;;16.14;49.06
8294;BME280;4185;41.506;24.938;2023-03-11T12:16:50;91597.06;;;15.99;48.80
8294;BME280;4185;41.506;24.938;2023-03-11T12:19:22;91593.53;;;15.89;48.60
8294;BME280;4185;41.506;24.938;2023-03-11T12:22:21;91588.31;;;15.66;49.76
8294;BME280;4185;41.506;24.938;2023-03-11T12:25:04;91589.03;;;15.67;49.98
8294;BME280;4185;41.506;24.938;2023-03-11T12:27:40;91584.84;;;15.66;50.90
8294;BME280;4185;41.506;24.938;2023-03-11T12:30:13;91589.03;;;15.67;51.26
8294;BME280;4185;41.506;24.938;2023-03-11T12:32:46;91601.28;;;15.66;49.82
8294;BME280;4185;41.506;24.938;2023-03-11T12:35:20;91592.00;;;15.61;50.94
8294;BME280;4185;41.506;24.938;2023-03-11T12:37:56;91602.25;;;15.61;51.62
8294;BME280;4185;41.506;24.938;2023-03-11T12:40:49;91602.94;;;15.61;52.80
8294;BME280;4185;41.506;24.938;2023-03-11T12:43:27;91613.41;;;15.55;52.36
8294;BME280;4185;41.506;24.938;2023-03-11T12:46:15;91597.00;;;15.72;52.66
8294;BME280;4185;41.506;24.938;2023-03-11T12:48:44;91595.69;;;15.91;51.53
8294;BME280;4185;41.506;24.938;2023-03-11T12:51:37;91594.72;;;16.39;51.14
8294;BME280;4185;41.506;24.938;2023-03-11T12:54:20;91580.25;;;16.82;49.67
8294;BME280;4185;41.506;24.938;2023-03-11T12:56:52;91577.88;;;17.05;49.28
8294;BME280;4185;41.506;24.938;2023-03-11T12:59:49;91569.63;;;17.80;47.77
8294;BME280;4185;41.506;24.938;2023-03-11T13:02:35;91560.94;;;18.12;45.83
8294;BME280;4185;41.506;24.938;2023-03-11T13:05:16;91549.53;;;18.06;46.23
8294;BME280;4185;41.506;24.938;2023-03-11T13:07:48;91568.63;;;18.04;45.71
8294;BME280;4185;41.506;24.938;2023-03-11T13:10:33;91563.56;;;18.00;46.16
8294;BME280;4185;41.506;24.938;2023-03-11T13:13:01;91550.19;;;18.35;46.22
8294;BME280;4185;41.506;24.938;2023-03-11T13:15:36;91547.38;;;18.73;45.90
8294;BME280;4185;41.506;24.938;2023-03-11T13:18:16;91548.84;;;19.35;44.78
8294;BME280;4185;41.506;24.938;2023-03-11T13:20:53;91555.78;;;19.36;42.99
8294;BME280;4185;41.506;24.938;2023-03-11T13:23:24;91578.13;;;19.21;42.98
8294;BME280;4185;41.506;24.938;2023-03-11T13:26:26;91589.59;;;19.18;43.02
8294;BME280;4185;41.506;24.938;2023-03-11T13:29:28;91600.69;;;18.30;42.71